Weather at Fresno Yosemite International Airport

Public forecast

Using degrees Fahrenheit for public forecast. Weather courtesy of forecast.io.

Current aviation weather report (METAR) for Fresno Yosemite International Airport

Report is more than 6 hours old.

2022/11/14 15:33 (retrieved 2 years ago)

KFAT 141533Z 00000KT 5SM BR CLR 06/04 A3019

Aviation forecast (TAF) for Fresno Yosemite International Airport

Forecast is more than 12 hours old.

2023/02/22 18:54 (retrieved 1 year ago)

TAF KFAT 221752Z 2218/2318 33003KT P6SM FEW100 FM222100 30009KT P6SM VCSH OVC050 FM230600 05006KT P6SM OVC050 PROB30 2306/2307 P6SM -SHRA OVC100 FM230800 06006KT P6SM OVC050